TimeCET,TemperatureF,Dew PointF,Humidity,Sea Level PressureIn,VisibilityMPH,Wind Direction,Wind SpeedMPH,Gust SpeedMPH,PrecipitationIn,Events,Conditions,WindDirDegrees,DateUTC
12:00 AM,42.8,37.4,81,30.18,-9999.0,East,5.8,-,N/A,,Clear,100,2014-02-26 23:00:00
12:30 AM,42.8,37.4,81,30.18,-9999.0,East,6.9,-,N/A,,Clear,100,2014-02-26 23:30:00
1:00 AM,41.0,37.4,87,30.18,-9999.0,ESE,5.8,-,N/A,,Clear,120,2014-02-27 00:00:00
1:30 AM,41.0,37.4,87,30.18,-9999.0,East,6.9,-,N/A,,Clear,100,2014-02-27 00:30:00
2:00 AM,42.8,37.4,81,30.15,-9999.0,East,8.1,-,N/A,,Clear,100,2014-02-27 01:00:00
2:30 AM,42.8,37.4,81,30.15,-9999.0,ESE,6.9,-,N/A,,Clear,110,2014-02-27 01:30:00
3:00 AM,41.0,37.4,87,30.15,-9999.0,ESE,8.1,-,N/A,,Clear,110,2014-02-27 02:00:00
3:30 AM,41.0,37.4,87,30.15,-9999.0,East,8.1,-,N/A,,Clear,100,2014-02-27 02:30:00
4:00 AM,42.8,37.4,81,30.15,-9999.0,ESE,8.1,-,N/A,,Clear,110,2014-02-27 03:00:00
4:30 AM,41.0,35.6,81,30.15,-9999.0,East,8.1,-,N/A,,Clear,100,2014-02-27 03:30:00
5:00 AM,41.0,35.6,81,30.15,-9999.0,East,9.2,-,N/A,,Clear,100,2014-02-27 04:00:00
5:30 AM,41.0,35.6,81,30.15,-9999.0,East,9.2,-,N/A,,Clear,100,2014-02-27 04:30:00
6:00 AM,41.0,35.6,81,30.15,-9999.0,East,8.1,-,N/A,,Clear,100,2014-02-27 05:00:00
6:30 AM,41.0,37.4,87,30.15,5.0,East,9.2,-,N/A,,Unknown,100,2014-02-27 05:30:00
7:00 AM,41.0,37.4,87,30.15,5.0,East,6.9,-,N/A,,Unknown,100,2014-02-27 06:00:00
7:30 AM,41.0,35.6,81,30.15,5.0,East,6.9,-,N/A,,Unknown,100,2014-02-27 06:30:00
8:00 AM,41.0,37.4,87,30.15,-9999.0,East,8.1,-,N/A,,Clear,90,2014-02-27 07:00:00
8:30 AM,42.8,35.6,76,30.18,-9999.0,East,6.9,-,N/A,,Clear,90,2014-02-27 07:30:00
9:00 AM,42.8,35.6,76,30.18,-9999.0,ESE,9.2,-,N/A,,Clear,110,2014-02-27 08:00:00
9:30 AM,44.6,35.6,71,30.18,-9999.0,ESE,8.1,-,N/A,,Clear,120,2014-02-27 08:30:00
10:00 AM,44.6,35.6,71,30.18,-9999.0,ESE,8.1,-,N/A,,Clear,120,2014-02-27 09:00:00
10:30 AM,44.6,35.6,71,30.18,6.2,ESE,6.9,-,N/A,,Mostly Cloudy,120,2014-02-27 09:30:00
11:00 AM,48.2,37.4,66,30.18,6.2,SE,6.9,-,N/A,,Scattered Clouds,130,2014-02-27 10:00:00
11:30 AM,48.2,35.6,62,30.15,6.2,SSE,4.6,-,N/A,,Scattered Clouds,150,2014-02-27 10:30:00
12:00 PM,48.2,37.4,66,30.15,6.2,NNE,5.8,-,N/A,,Scattered Clouds,30,2014-02-27 11:00:00
12:30 PM,50.0,37.4,62,30.12,6.2,SSE,5.8,-,N/A,,Scattered Clouds,150,2014-02-27 11:30:00
1:00 PM,50.0,37.4,62,30.12,6.2,SSE,4.6,-,N/A,,Mostly Cloudy,150,2014-02-27 12:00:00
1:30 PM,50.0,37.4,62,30.12,6.2,SSE,6.9,-,N/A,,Mostly Cloudy,160,2014-02-27 12:30:00
2:00 PM,51.8,37.4,58,30.09,6.2,SSW,6.9,-,N/A,,Mostly Cloudy,200,2014-02-27 13:00:00
2:30 PM,51.8,39.2,62,30.09,6.2,SSW,6.9,-,N/A,,Mostly Cloudy,200,2014-02-27 13:30:00
3:00 PM,51.8,39.2,62,30.09,6.2,South,6.9,-,N/A,,Mostly Cloudy,170,2014-02-27 14:00:00
3:30 PM,51.8,37.4,58,30.09,6.2,South,5.8,-,N/A,,Mostly Cloudy,180,2014-02-27 14:30:00
4:00 PM,51.8,37.4,58,30.06,6.2,South,4.6,-,N/A,,Mostly Cloudy,190,2014-02-27 15:00:00
4:30 PM,51.8,39.2,62,30.06,6.2,SE,5.8,-,N/A,,Mostly Cloudy,130,2014-02-27 15:30:00
5:00 PM,50.0,39.2,66,30.06,6.2,SE,4.6,-,N/A,,Mostly Cloudy,130,2014-02-27 16:00:00
5:30 PM,50.0,41.0,71,30.06,6.2,Variable,2.3,-,N/A,,Mostly Cloudy,0,2014-02-27 16:30:00
6:00 PM,50.0,39.2,66,30.06,6.2,ENE,4.6,-,N/A,,Mostly Cloudy,70,2014-02-27 17:00:00
6:30 PM,50.0,39.2,66,30.06,6.2,ENE,4.6,-,N/A,,Overcast,60,2014-02-27 17:30:00
7:00 PM,48.2,39.2,71,30.06,6.2,Variable,1.2,-,N/A,,Mostly Cloudy,0,2014-02-27 18:00:00
7:30 PM,48.2,39.2,71,30.06,6.2,ENE,4.6,-,N/A,,Mostly Cloudy,70,2014-02-27 18:30:00
8:00 PM,46.4,39.2,76,30.06,6.2,ENE,5.8,-,N/A,,Mostly Cloudy,70,2014-02-27 19:00:00
8:30 PM,46.4,39.2,76,30.06,6.2,Variable,2.3,-,N/A,,Mostly Cloudy,0,2014-02-27 19:30:00
9:00 PM,46.4,41.0,81,30.04,6.2,East,4.6,-,N/A,,Mostly Cloudy,90,2014-02-27 20:00:00
9:30 PM,46.4,41.0,81,30.04,6.2,Variable,1.2,-,N/A,,Mostly Cloudy,0,2014-02-27 20:30:00
10:00 PM,44.6,41.0,87,30.04,6.2,Variable,3.5,-,N/A,,Mostly Cloudy,0,2014-02-27 21:00:00
10:30 PM,44.6,39.2,81,30.04,6.2,Variable,1.2,-,N/A,,Mostly Cloudy,0,2014-02-27 21:30:00
11:00 PM,42.8,39.2,87,30.04,6.2,SE,4.6,-,N/A,,Mostly Cloudy,130,2014-02-27 22:00:00
11:30 PM,42.8,39.2,87,30.04,6.2,Variable,3.5,-,N/A,,Mostly Cloudy,0,2014-02-27 22:30:00